Date,TemperatureHighF,TemperatureAvgF,TemperatureLowF,DewpointHighF,DewpointAvgF,DewpointLowF,HumidityHigh,HumidityAvg,HumidityLow,PressureMaxIn,PressureMinIn,WindSpeedMaxMPH,WindSpeedAvgMPH,GustSpeedMaxMPH,PrecipitationSumIn
2013-1-3,22.6,20.7,18.5,13.2,12.2,11.0,72,69,65,29.98,29.95,21,16,0,0.00
2013-1-4,30.9,24.0,18.7,18.7,14.1,11.0,73,66,51,29.99,29.86,18,11,0,0.00
2013-1-5,26.8,19.2,11.5,20.7,14.9,8.9,92,83,71,30.06,29.84,32,15,0,0.00
2013-1-6,31.3,25.5,15.3,23.1,18.8,11.8,87,76,69,29.92,29.68,16,12,0,0.00
2013-1-7,32.4,25.4,16.0,23.7,19.7,15.0,96,79,69,29.80,29.60,21,11,0,0.00
2013-1-8,37.9,30.3,20.3,30.8,26.0,15.9,96,84,72,29.91,29.50,23,14,0,0.00
2013-1-9,31.8,25.6,19.9,27.5,21.1,14.7,86,83,79,29.99,29.66,22,12,0,0.00
2013-1-10,37.9,32.5,21.7,29.5,27.0,21.5,99,81,63,29.65,29.34,18,10,0,0.00
2013-1-11,21.7,10.1,2.3,21.5,8.7,-0.2,99,94,89,29.71,29.44,20,10,0,0.00
2013-1-12,3.2,-0.4,-2.7,-0.1,-3.8,-6.9,90,85,76,30.04,29.72,20,14,0,0.00
2013-1-13,4.3,1.1,-2.6,1.0,-2.3,-6.6,92,85,78,30.06,29.98,19,10,0,0.00
2013-1-14,12.0,5.3,-3.1,8.4,1.8,-5.3,91,85,76,30.06,29.87,14,8,0,0.00
2013-1-15,36.1,24.8,4.8,31.6,21.2,1.1,97,86,75,29.87,29.62,37,19,0,0.00
2013-1-16,37.9,33.4,26.1,31.7,29.8,25.8,99,87,75,30.11,29.66,26,13,0,0.00
2013-1-17,36.1,31.7,27.3,30.4,28.0,24.8,98,87,69,30.24,29.77,20,9,0,0.00
2013-1-18,40.5,35.2,30.6,29.7,27.4,24.2,80,73,63,29.77,29.66,24,16,0,0.00
2013-1-19,34.5,16.8,2.7,29.3,12.6,-1.3,94,83,74,30.22,29.70,26,12,0,0.00
2013-1-20,7.3,-1.5,-12.1,5.3,-5.9,-18.0,91,81,72,30.38,30.13,26,12,0,0.00
2013-1-21,3.6,-1.8,-9.2,-0.6,-7.7,-15.5,88,75,65,30.27,30.05,20,9,0,0.00
2013-1-22,22.6,9.7,1.4,15.6,6.5,-0.6,94,87,74,30.06,29.93,14,8,0,0.00
2013-1-23,7.9,2.7,-1.1,4.9,-1.1,-4.2,93,84,66,30.29,30.04,21,8,0,0.00
2013-1-24,28.4,11.3,-1.5,23.6,7.6,-4.2,91,85,77,30.19,29.76,27,18,0,0.00
2013-1-25,23.5,16.5,12.4,19.7,14.4,10.7,97,91,83,30.04,29.87,22,10,0,0.00
2013-1-26,38.1,26.4,20.5,30.9,23.9,18.5,97,90,74,29.87,29.70,12,5,0,0.13
2013-1-27,36.5,27.1,18.3,29.7,24.6,16.9,98,90,76,29.70,29.59,14,7,0,0.00
2013-1-28,33.8,28.8,23.5,29.6,26.2,21.2,98,90,80,29.71,29.62,15,8,0,0.00
2013-1-29,28.0,16.4,-3.6,22.2,13.5,-6.8,97,88,73,29.99,29.58,25,10,0,0.00
2013-1-30,1.2,-4.4,-9.6,-4.6,-8.6,-13.1,87,82,74,29.96,29.76,21,12,0,0.00
2013-1-31,3.4,-10.4,-20.2,-0.1,-15.1,-24.0,86,79,71,30.20,29.91,22,12,0,0.00
2013-2-1,26.8,20.0,3.4,25.0,17.2,-0.1,98,89,81,29.96,29.76,22,11,0,0.00
2013-2-2,34.2,26.8,20.1,30.5,24.5,18.2,99,91,80,30.07,29.89,34,16,0,0.01
2013-2-3,27.5,22.4,17.4,22.6,19.6,15.7,94,89,79,30.00,29.68,15,5,0,0.00
2013-2-4,39.0,29.1,17.8,31.6,25.6,16.8,98,87,73,29.83,29.55,20,11,0,0.00
2013-2-5,32.4,27.1,22.1,28.2,22.5,19.5,90,83,67,29.89,29.66,21,11,0,0.00
2013-2-6,41.0,32.4,25.0,31.8,27.5,23.6,99,83,67,29.95,29.59,20,10,0,0.00
2013-2-7,27.5,25.1,21.7,26.8,24.6,21.0,99,98,96,29.99,29.94,16,8,0,0.00
2013-2-8,29.5,25.8,22.6,28.3,25.0,21.9,99,97,88,29.95,29.78,16,4,0,0.00
2013-2-9,35.1,24.5,15.8,26.6,21.7,14.6,99,89,69,29.81,29.69,5,1,0,0.00
2013-2-10,26.8,22.2,16.9,25.9,19.2,14.2,97,88,83,29.90,29.66,32,14,0,0.00
2013-2-11,29.3,20.3,15.4,20.4,15.8,13.0,91,83,68,29.94,29.79,19,12,0,0.00
2013-2-17,33.4,29.1,20.5,29.4,26.2,17.0,92,89,83,29.65,29.44,27,20,0,0.00
2013-2-18,20.1,11.8,-1.5,16.3,7.7,-3.9,89,83,75,30.16,29.66,27,14,0,0.00
2013-2-19,8.1,-0.9,-10.5,0.1,-5.4,-14.2,89,81,67,30.20,30.05,25,13,0,0.00
2013-2-20,18.0,8.6,-0.9,9.9,2.0,-5.1,89,75,57,30.05,29.87,29,16,0,0.00
2013-2-21,23.7,17.3,12.0,19.8,14.5,9.2,93,89,81,29.98,29.90,15,9,0,0.00
2013-2-22,36.9,23.0,14.4,26.5,18.8,12.7,95,85,64,29.90,29.63,11,7,0,0.00
2013-2-23,40.1,30.0,17.1,32.1,24.2,14.6,97,80,55,29.72,29.54,15,7,0,0.04
2013-2-24,35.2,29.7,22.8,29.5,24.5,16.4,94,81,65,29.99,29.73,19,10,0,0.00
2013-2-25,46.4,31.7,19.4,25.6,20.5,14.8,83,65,39,29.95,29.73,17,10,0,0.00
2013-2-26,42.6,32.0,19.9,30.1,25.0,17.5,90,76,56,30.03,29.74,20,10,0,0.00
2013-2-27,28.6,25.3,22.6,24.3,22.2,21.0,97,88,81,30.18,30.03,18,8,0,0.00
2013-2-28,33.3,25.3,19.0,25.6,22.1,18.1,96,88,70,30.17,30.08,12,5,0,0.00
2013-3-1,37.4,26.8,17.1,27.5,23.1,16.2,99,87,67,30.23,30.03,15,6,0,0.00
2013-3-2,51.4,39.4,29.1,37.2,32.1,24.5,93,76,57,30.02,29.80,19,8,0,0.00
2013-3-3,50.5,37.8,31.1,41.6,34.8,29.7,99,90,61,29.80,29.44,24,7,0,0.28
2013-3-4,31.8,20.6,12.4,31.3,18.4,10.0,98,91,87,30.14,29.51,28,16,0,0.00
2013-3-5,20.5,14.1,8.6,15.0,10.8,6.3,93,87,77,30.31,30.15,22,8,0,0.00
2013-3-6,23.9,16.8,9.3,20.3,14.1,7.7,94,89,81,30.21,29.90,24,14,0,0.00
2013-3-7,34.2,27.2,15.3,28.8,24.0,14.1,95,88,78,30.02,29.82,15,6,0,0.00
2013-3-8,26.2,26.2,26.2,24.8,24.8,24.8,94,94,94,30.02,30.02,0,0,0,0.00
2013-3-9,26.2,26.2,26.2,24.8,24.8,24.8,94,94,94,30.02,30.02,0,0,0,0.00
2013-3-11,20.7,19.8,19.0,16.6,15.6,14.7,84,84,83,29.99,29.97,27,24,0,0.00
2013-3-12,27.5,19.1,12.2,15.0,11.3,8.7,86,72,50,30.21,30.00,29,13,0,0.00
2013-3-13,47.8,31.7,17.4,36.0,24.2,12.3,81,74,61,30.13,29.89,13,10,0,0.00
2013-3-14,65.7,46.0,27.5,41.6,34.7,27.3,99,69,35,30.03,29.92,20,11,0,0.00
2013-3-15,27.5,20.9,11.8,27.3,19.9,10.0,99,96,92,30.03,29.77,15,7,0,0.00
2013-3-16,21.7,14.7,10.4,14.2,11.3,8.2,93,86,71,30.05,29.90,20,8,0,0.00
2013-3-17,28.4,17.3,6.8,28.2,15.7,3.0,99,93,84,29.89,29.31,36,16,0,0.00
2013-3-18,6.8,3.5,1.8,3.0,-0.3,-2.2,86,84,83,29.66,29.61,32,25,0,0.00
2013-3-21,21.2,19.7,18.3,17.9,17.2,16.1,92,90,87,29.82,29.81,16,12,0,0.00
2013-3-22,28.4,19.9,14.2,20.8,15.9,10.7,92,84,70,29.99,29.79,21,9,0,0.00
2013-3-23,19.8,13.3,7.3,11.6,8.3,4.8,90,80,67,30.13,29.99,26,14,0,0.00
2013-3-24,23.0,12.9,6.3,16.3,9.2,3.7,91,85,70,30.24,30.08,17,10,0,0.00
2013-3-25,29.3,16.7,6.6,17.2,11.1,4.3,91,79,54,30.27,30.15,13,6,0,0.00
2013-3-26,37.8,24.2,9.7,25.5,17.4,7.1,89,76,57,30.14,29.98,17,10,0,0.00
2013-3-27,48.6,31.0,15.1,31.0,22.6,13.6,94,74,42,30.04,29.99,11,7,0,0.00
2013-3-28,52.7,37.5,26.6,36.3,29.5,23.3,92,74,48,30.07,30.01,9,5,0,0.00
2013-3-29,58.6,39.3,25.9,41.0,33.1,24.4,95,80,48,30.06,29.89,18,5,0,0.00
2013-3-30,55.4,39.9,30.4,35.9,31.8,23.6,96,75,41,30.00,29.92,20,12,0,0.00
2013-3-31,30.7,25.2,15.4,24.4,20.4,11.2,89,82,73,30.16,29.95,10,5,0,0.00
2013-4-1,41.2,26.3,12.0,23.1,16.8,9.0,89,69,47,30.18,30.10,12,4,0,0.00
2013-4-2,50.0,33.3,18.3,27.8,22.1,14.8,86,65,39,30.15,29.98,22,9,0,0.00
2013-4-3,66.9,41.1,27.5,40.2,28.1,20.3,77,62,36,30.08,29.79,26,14,0,0.00
2013-4-4,42.8,32.1,23.5,25.9,22.8,19.9,90,70,45,30.18,29.99,16,7,0,0.00
2013-4-5,51.1,37.6,25.5,40.1,26.9,21.5,90,67,44,29.99,29.56,24,14,0,0.00
2013-4-6,54.3,45.3,29.7,42.0,37.1,27.0,92,74,55,29.77,29.56,21,10,0,0.00
2013-4-7,59.5,41.3,30.9,39.9,32.9,29.1,98,77,37,29.77,29.54,18,8,0,0.01
2013-4-8,32.7,22.3,10.2,32.5,21.6,8.8,99,97,94,30.24,29.61,21,10,0,0.00
2013-4-9,28.2,17.1,7.5,20.7,13.9,5.9,97,88,65,30.36,30.22,13,7,0,0.00
2013-4-10,35.8,27.7,19.0,23.3,19.5,16.5,91,72,54,30.29,29.88,12,4,0,0.00
2013-4-11,39.7,30.1,21.2,25.0,21.6,17.0,97,72,45,29.89,29.74,22,6,0,0.00
2013-4-12,35.1,29.3,25.0,29.5,25.9,22.6,95,87,74,29.87,29.79,9,4,0,0.00
2013-4-13,45.3,32.1,19.4,31.5,26.9,18.7,99,83,57,29.82,29.50,36,17,0,0.00
2013-4-14,28.0,24.5,22.6,27.8,24.1,21.9,99,98,96,29.66,29.46,32,14,0,0.00
2013-4-15,28.4,24.8,18.9,28.2,24.5,18.6,99,99,99,29.99,29.65,21,13,0,0.00
2013-4-16,30.0,24.3,17.8,29.8,23.4,17.5,99,96,84,30.26,29.97,12,6,0,0.00
2013-4-17,31.8,26.3,20.8,26.7,23.3,20.5,99,89,73,30.27,30.12,13,6,0,0.00
2013-4-18,33.8,24.2,13.6,22.2,18.2,11.9,98,79,58,30.13,29.91,21,9,0,0.00
2013-4-19,33.3,27.7,22.3,22.1,18.6,12.0,84,69,50,29.98,29.87,13,6,0,0.00
2013-4-20,32.9,27.9,22.6,30.5,24.7,17.7,99,88,79,29.94,29.80,26,16,0,0.00
2013-4-21,37.8,33.5,26.2,36.5,28.9,23.4,99,84,64,30.17,29.78,23,11,0,0.00
2013-4-22,32.2,25.2,18.3,23.3,17.7,13.5,91,74,50,30.33,30.17,19,8,0,0.00
2013-4-23,45.7,33.3,17.2,25.9,19.5,12.4,82,59,36,30.28,29.91,20,10,0,0.00
2013-4-24,39.0,31.9,23.9,29.4,23.1,17.7,94,72,44,29.99,29.87,26,11,0,0.00
2013-4-25,63.7,45.2,23.5,34.0,27.8,18.2,81,54,28,29.96,29.70,19,10,0,0.00
2013-4-26,74.7,57.8,38.5,34.8,31.2,27.0,74,41,18,30.01,29.85,15,8,0,0.00
2013-4-27,76.8,62.2,45.1,37.2,34.6,31.3,63,38,22,29.93,29.65,21,11,0,0.00
2013-4-28,63.0,55.7,38.5,39.1,32.3,25.8,60,42,26,29.83,29.65,21,10,0,0.00
2013-4-29,66.4,50.0,34.2,44.7,36.0,24.3,93,62,30,29.79,29.37,23,12,0,0.07
2013-4-30,45.1,37.7,27.0,42.5,28.4,21.0,91,69,54,30.13,29.45,43,22,0,0.00
2013-5-1,50.0,35.6,21.0,24.3,17.9,9.8,90,54,21,30.56,30.13,22,9,0,0.00
2013-5-2,61.3,41.4,24.4,24.8,19.4,14.0,73,45,19,30.59,30.35,13,7,0,0.00
2013-5-3,58.5,42.6,26.1,26.6,22.7,17.1,77,48,27,30.36,30.12,20,11,0,0.00
2013-5-4,57.7,43.0,26.2,26.0,20.0,15.8,72,43,20,30.26,30.19,13,5,0,0.00
2013-5-5,63.5,49.6,34.3,32.3,26.7,19.0,61,42,29,30.23,30.06,18,6,0,0.00
2013-5-6,70.7,56.2,42.1,34.2,29.6,23.7,53,38,23,30.08,29.93,18,7,0,0.00
2013-5-7,81.3,60.3,41.4,44.3,34.3,29.4,74,42,19,29.94,29.77,17,7,0,0.00
2013-5-8,67.5,55.3,43.2,46.3,41.7,30.9,91,62,42,30.14,29.85,22,9,0,0.00
2013-5-9,61.7,47.6,33.8,35.2,29.6,25.0,76,52,32,30.20,30.08,18,8,0,0.00
2013-5-10,69.1,52.0,35.8,45.1,29.9,20.5,60,44,27,30.26,30.00,23,12,0,0.00
2013-5-11,57.0,42.8,27.7,24.3,19.8,14.3,79,43,20,30.39,30.15,12,6,0,0.00
2013-5-12,76.8,56.9,31.8,37.3,27.4,15.1,54,34,21,30.16,29.77,20,10,0,0.00
2013-5-13,88.7,73.8,58.1,50.2,45.1,35.0,52,38,21,29.79,29.56,27,14,0,0.00
2013-5-14,74.3,65.1,49.3,54.9,43.0,35.2,94,47,29,29.84,29.47,40,16,0,0.00
2013-5-15,55.8,53.3,50.4,40.5,39.8,38.7,64,60,55,29.86,29.85,8,6,0,0.00
2013-5-16,52.9,50.4,49.8,50.3,48.9,38.9,99,95,59,29.83,29.82,13,10,0,0.00
2013-5-17,74.5,60.1,48.6,59.4,54.2,48.3,99,83,55,29.83,29.71,17,7,0,0.48
2013-5-18,72.1,61.8,51.8,60.1,57.1,51.5,99,86,62,29.79,29.69,21,6,0,0.04
2013-5-19,59.0,51.0,48.7,58.7,50.8,48.5,99,99,99,29.71,29.54,24,11,0,1.70
2013-5-20,103.6,57.2,44.2,99.9,56.4,44.0,99,99,96,29.81,29.54,22,13,0,0.90
2013-5-21,46.8,43.4,41.0,46.5,43.1,40.7,99,99,99,29.94,29.79,20,10,0,0.12
2013-5-22,64.0,53.4,44.1,47.1,41.1,33.7,99,68,33,30.12,29.94,25,11,0,0.00
2013-5-23,67.1,56.0,42.1,50.3,45.2,41.2,99,70,45,30.16,30.00,35,17,0,0.00
2013-5-24,71.2,57.9,47.3,59.4,49.9,41.8,99,76,41,29.99,29.84,32,14,0,0.00
2013-5-25,133.0,66.5,14.5,99.9,59.9,14.3,99,94,70,29.96,29.81,34,14,0,1.59
2013-5-26,71.1,61.7,53.2,62.6,57.9,53.0,99,88,69,29.94,29.82,17,10,0,0.48
2013-5-27,59.0,55.9,50.5,58.4,55.5,50.3,99,99,95,29.84,29.57,24,10,0,1.06
2013-5-28,74.5,61.8,49.5,57.4,53.4,49.2,99,77,46,29.65,29.59,18,9,0,0.00
2013-5-29,71.1,61.4,52.2,60.5,55.9,50.8,98,83,63,29.64,29.48,23,9,0,0.00
2013-5-30,62.2,56.4,53.6,61.7,55.9,53.3,99,99,93,29.50,29.20,18,9,0,1.78
2013-5-31,57.4,50.6,45.0,57.1,50.3,44.7,99,99,99,29.88,29.28,17,8,0,1.60
2013-6-1,63.1,52.2,44.4,48.3,44.5,41.8,99,78,47,30.08,29.89,17,8,0,0.00
2013-6-2,64.4,54.7,42.8,49.4,45.1,39.8,90,71,50,30.08,29.87,18,9,0,0.00
2013-6-3,54.1,49.1,45.0,53.9,47.4,44.0,99,94,86,29.87,29.63,39,19,0,0.06
2013-6-4,49.6,47.1,45.1,49.4,46.8,44.9,99,99,92,30.07,29.76,22,10,0,0.04
2013-6-5,60.8,53.4,46.0,51.3,48.1,43.9,99,83,60,30.12,30.06,15,6,0,0.00
2013-6-6,69.3,55.3,45.0,52.5,48.5,44.7,99,81,46,30.06,30.00,9,4,0,0.00
2013-6-8,67.1,59.5,52.2,57.5,54.5,50.5,94,84,67,29.83,29.70,27,10,0,0.00
2013-6-9,78.6,64.4,49.3,57.7,52.3,49.0,99,69,40,29.87,29.71,15,6,0,0.00